Lang, Canada
Current Conditions -  °F | °C
As of 12:00 PM on Thursday 30 Oct 2014 (Local Time) from CYQR Reporting Station
Overcast Overcast  
Wind Chill: 18°   Ceiling: 1000
Heat Index: 28°   Visibility: 15mi
Dew Point: 25°   Wind: 13mph
Humidity: 86%   Direction: 100°E
Pressure: 30.48"   Gusts: NA
Location:  49.92°N, 104.37°W
Report Text: CYQR 301800Z 10011KT 15SM OVC010 M02/M04 A3048 RMK SC8 SLP355
Loading
Personal Weather Stations






























Interactive Weather Map
Tropical Storm Tracking
New forecast layout! Learn more

10-Day Weather Forecast

Advertisements
Track Severe Weather on mobile